sensor_id;sensor_type;location;lat;lon;timestamp;pressure;altitude;pressure_sealevel;temperature;humidity
73671;BME280;61968;48.178;11.566;2024-02-26T00:01:01;94046.97;;;6.05;36.77
73671;BME280;61968;48.178;11.566;2024-02-26T00:03:28;94044.56;;;6.04;36.86
73671;BME280;61968;48.178;11.566;2024-02-26T00:05:54;94041.41;;;6.02;36.82
73671;BME280;61968;48.178;11.566;2024-02-26T00:08:21;94039.88;;;6.06;36.77
73671;BME280;61968;48.178;11.566;2024-02-26T00:10:48;94035.03;;;5.98;36.49
73671;BME280;61968;48.178;11.566;2024-02-26T00:13:14;94042.88;;;5.93;36.44
73671;BME280;61968;48.178;11.566;2024-02-26T00:15:40;94035.47;;;5.90;36.87
73671;BME280;61968;48.178;11.566;2024-02-26T00:18:08;94032.59;;;5.91;36.66
73671;BME280;61968;48.178;11.566;2024-02-26T00:20:35;94042.00;;;5.87;36.37
73671;BME280;61968;48.178;11.566;2024-02-26T00:23:01;94035.88;;;5.81;36.57
73671;BME280;61968;48.178;11.566;2024-02-26T00:25:27;94028.03;;;5.81;36.71
73671;BME280;61968;48.178;11.566;2024-02-26T00:27:54;94025.88;;;5.78;36.46
73671;BME280;61968;48.178;11.566;2024-02-26T00:30:20;94034.72;;;5.72;36.75
73671;BME280;61968;48.178;11.566;2024-02-26T00:32:47;94028.44;;;5.73;36.74
73671;BME280;61968;48.178;11.566;2024-02-26T00:35:15;94029.00;;;5.75;36.52
73671;BME280;61968;48.178;11.566;2024-02-26T00:37:45;94025.31;;;5.76;36.55
73671;BME280;61968;48.178;11.566;2024-02-26T00:40:12;94023.19;;;5.73;36.64
73671;BME280;61968;48.178;11.566;2024-02-26T00:42:38;94023.19;;;5.73;36.96
73671;BME280;61968;48.178;11.566;2024-02-26T00:45:10;94018.41;;;5.70;36.52
73671;BME280;61968;48.178;11.566;2024-02-26T00:47:37;94017.41;;;5.71;36.52
73671;BME280;61968;48.178;11.566;2024-02-26T00:50:06;94014.53;;;5.73;36.70
73671;BME280;61968;48.178;11.566;2024-02-26T00:52:34;94015.25;;;5.68;36.74
73671;BME280;61968;48.178;11.566;2024-02-26T00:55:02;94015.78;;;5.70;36.41
73671;BME280;61968;48.178;11.566;2024-02-26T00:57:29;94008.19;;;5.69;36.64
73671;BME280;61968;48.178;11.566;2024-02-26T00:59:55;94008.09;;;5.64;36.43
73671;BME280;61968;48.178;11.566;2024-02-26T01:02:22;94007.94;;;5.70;36.37
73671;BME280;61968;48.178;11.566;2024-02-26T01:04:48;94011.81;;;5.68;36.23
73671;BME280;61968;48.178;11.566;2024-02-26T01:07:15;94006.84;;;5.66;36.23
73671;BME280;61968;48.178;11.566;2024-02-26T01:09:43;94009.38;;;5.61;36.16
73671;BME280;61968;48.178;11.566;2024-02-26T01:12:09;94004.13;;;5.61;36.31
73671;BME280;61968;48.178;11.566;2024-02-26T01:14:35;94014.31;;;5.57;36.19
73671;BME280;61968;48.178;11.566;2024-02-26T01:17:02;94017.50;;;5.59;36.35
73671;BME280;61968;48.178;11.566;2024-02-26T01:19:29;94018.78;;;5.57;36.40
73671;BME280;61968;48.178;11.566;2024-02-26T01:21:55;94020.13;;;5.59;36.36
73671;BME280;61968;48.178;11.566;2024-02-26T01:24:22;94014.88;;;5.59;36.43
73671;BME280;61968;48.178;11.566;2024-02-26T01:26:49;94007.00;;;5.59;35.93
73671;BME280;61968;48.178;11.566;2024-02-26T01:29:16;94010.91;;;5.57;36.01
73671;BME280;61968;48.178;11.566;2024-02-26T01:31:42;94006.69;;;5.56;36.03
73671;BME280;61968;48.178;11.566;2024-02-26T01:34:09;94008.03;;;5.58;36.25
73671;BME280;61968;48.178;11.566;2024-02-26T01:36:36;94006.16;;;5.54;36.12
73671;BME280;61968;48.178;11.566;2024-02-26T01:39:02;94009.00;;;5.52;36.23
73671;BME280;61968;48.178;11.566;2024-02-26T01:41:29;94011.88;;;5.51;36.13
73671;BME280;61968;48.178;11.566;2024-02-26T01:43:56;94013.94;;;5.49;36.16
73671;BME280;61968;48.178;11.566;2024-02-26T01:46:23;94008.63;;;5.44;36.40
73671;BME280;61968;48.178;11.566;2024-02-26T01:48:50;94006.78;;;5.44;36.12
73671;BME280;61968;48.178;11.566;2024-02-26T01:51:16;94002.09;;;5.46;36.29
73671;BME280;61968;48.178;11.566;2024-02-26T01:53:43;94004.47;;;5.48;35.83
73671;BME280;61968;48.178;11.566;2024-02-26T01:56:11;94008.63;;;5.44;36.13
73671;BME280;61968;48.178;11.566;2024-02-26T01:58:38;94010.19;;;5.45;35.95
73671;BME280;61968;48.178;11.566;2024-02-26T02:01:06;94008.16;;;5.47;36.13
73671;BME280;61968;48.178;11.566;2024-02-26T02:03:33;93997.19;;;5.50;35.97
73671;BME280;61968;48.178;11.566;2024-02-26T02:06:00;93994.16;;;5.41;36.21
73671;BME280;61968;48.178;11.566;2024-02-26T02:08:27;93990.75;;;5.41;35.96
73671;BME280;61968;48.178;11.566;2024-02-26T02:10:54;93989.63;;;5.36;36.08
73671;BME280;61968;48.178;11.566;2024-02-26T02:13:20;93989.88;;;5.35;36.32
73671;BME280;61968;48.178;11.566;2024-02-26T02:15:46;93985.13;;;5.32;36.02
73671;BME280;61968;48.178;11.566;2024-02-26T02:18:14;93986.13;;;5.31;36.09
73671;BME280;61968;48.178;11.566;2024-02-26T02:20:42;93978.22;;;5.26;36.46
73671;BME280;61968;48.178;11.566;2024-02-26T02:23:09;93984.25;;;5.26;36.27
73671;BME280;61968;48.178;11.566;2024-02-26T02:25:35;93976.13;;;5.28;36.04
73671;BME280;61968;48.178;11.566;2024-02-26T02:28:02;93979.06;;;5.31;36.06
73671;BME280;61968;48.178;11.566;2024-02-26T02:30:30;93984.78;;;5.28;35.99
73671;BME280;61968;48.178;11.566;2024-02-26T02:32:58;93979.53;;;5.28;36.21
73671;BME280;61968;48.178;11.566;2024-02-26T02:35:25;93975.34;;;5.27;35.99
73671;BME280;61968;48.178;11.566;2024-02-26T02:37:53;93978.69;;;5.23;36.05
73671;BME280;61968;48.178;11.566;2024-02-26T02:40:19;93985.22;;;5.20;36.09
73671;BME280;61968;48.178;11.566;2024-02-26T02:42:45;93978.84;;;5.16;36.03
73671;BME280;61968;48.178;11.566;2024-02-26T02:45:12;93981.94;;;5.13;35.96
73671;BME280;61968;48.178;11.566;2024-02-26T02:47:39;93987.13;;;5.08;35.89
73671;BME280;61968;48.178;11.566;2024-02-26T02:50:06;93988.13;;;5.07;35.99
73671;BME280;61968;48.178;11.566;2024-02-26T02:52:32;93981.09;;;5.07;35.82
73671;BME280;61968;48.178;11.566;2024-02-26T02:55:00;93984.41;;;5.03;35.62
73671;BME280;61968;48.178;11.566;2024-02-26T02:57:27;93988.84;;;5.02;35.83
73671;BME280;61968;48.178;11.566;2024-02-26T02:59:54;93985.75;;;5.05;35.92
73671;BME280;61968;48.178;11.566;2024-02-26T03:02:21;93985.19;;;5.03;35.95
73671;BME280;61968;48.178;11.566;2024-02-26T03:04:50;93985.75;;;5.05;35.94
73671;BME280;61968;48.178;11.566;2024-02-26T03:07:16;93980.53;;;5.05;35.77
73671;BME280;61968;48.178;11.566;2024-02-26T03:09:42;93971.88;;;5.05;35.56
73671;BME280;61968;48.178;11.566;2024-02-26T03:12:10;93967.13;;;5.02;35.60
73671;BME280;61968;48.178;11.566;2024-02-26T03:14:37;93970.28;;;5.04;35.29
73671;BME280;61968;48.178;11.566;2024-02-26T03:17:03;93965.19;;;4.97;35.36
73671;BME280;61968;48.178;11.566;2024-02-26T03:19:30;93965.97;;;4.98;35.65
73671;BME280;61968;48.178;11.566;2024-02-26T03:21:56;93964.41;;;4.97;35.45
73671;BME280;61968;48.178;11.566;2024-02-26T03:24:22;93970.22;;;4.99;35.46
73671;BME280;61968;48.178;11.566;2024-02-26T03:26:49;93969.66;;;4.97;35.37
73671;BME280;61968;48.178;11.566;2024-02-26T03:29:18;93964.88;;;4.94;35.40
73671;BME280;61968;48.178;11.566;2024-02-26T03:31:45;93970.91;;;4.94;35.44
73671;BME280;61968;48.178;11.566;2024-02-26T03:34:11;93977.50;;;4.97;35.47
73671;BME280;61968;48.178;11.566;2024-02-26T03:36:39;93976.22;;;4.99;35.44
73671;BME280;61968;48.178;11.566;2024-02-26T03:39:06;93978.84;;;4.99;35.16
73671;BME280;61968;48.178;11.566;2024-02-26T03:41:33;93980.13;;;4.97;35.43
73671;BME280;61968;48.178;11.566;2024-02-26T03:44:00;93982.66;;;4.91;35.52
73671;BME280;61968;48.178;11.566;2024-02-26T03:46:27;93977.41;;;4.91;35.32
73671;BME280;61968;48.178;11.566;2024-02-26T03:48:54;93972.97;;;4.92;35.64
73671;BME280;61968;48.178;11.566;2024-02-26T03:51:20;93970.72;;;4.84;35.45
73671;BME280;61968;48.178;11.566;2024-02-26T03:53:47;93965.72;;;4.82;35.48
73671;BME280;61968;48.178;11.566;2024-02-26T03:56:13;93965.03;;;4.87;35.70
73671;BME280;61968;48.178;11.566;2024-02-26T03:58:40;93971.28;;;4.86;35.59
73671;BME280;61968;48.178;11.566;2024-02-26T04:01:07;93974.03;;;4.79;35.44
73671;BME280;61968;48.178;11.566;2024-02-26T04:03:35;93967.78;;;4.80;35.47
73671;BME280;61968;48.178;11.566;2024-02-26T04:06:01;93960.03;;;4.85;35.70
73671;BME280;61968;48.178;11.566;2024-02-26T04:08:28;93967.88;;;4.85;35.47
73671;BME280;61968;48.178;11.566;2024-02-26T04:10:55;93964.69;;;4.83;35.48
73671;BME280;61968;48.178;11.566;2024-02-26T04:13:21;93964.69;;;4.83;35.70
73671;BME280;61968;48.178;11.566;2024-02-26T04:15:48;93963.88;;;4.83;35.81
73671;BME280;61968;48.178;11.566;2024-02-26T04:18:14;93960.47;;;4.82;35.57
73671;BME280;61968;48.178;11.566;2024-02-26T04:20:42;93959.47;;;4.83;35.69
73671;BME280;61968;48.178;11.566;2024-02-26T04:23:08;93959.00;;;4.86;35.58
73671;BME280;61968;48.178;11.566;2024-02-26T04:25:34;93964.13;;;4.81;35.49
73671;BME280;61968;48.178;11.566;2024-02-26T04:28:01;93968.91;;;4.84;35.71
73671;BME280;61968;48.178;11.566;2024-02-26T04:30:28;93975.06;;;4.78;35.74
73671;BME280;61968;48.178;11.566;2024-02-26T04:32:54;93976.13;;;4.77;35.77
73671;BME280;61968;48.178;11.566;2024-02-26T04:35:20;93969.38;;;4.81;35.85
73671;BME280;61968;48.178;11.566;2024-02-26T04:37:48;93976.13;;;4.77;35.99
73671;BME280;61968;48.178;11.566;2024-02-26T04:40:14;93974.34;;;4.83;35.84
73671;BME280;61968;48.178;11.566;2024-02-26T04:42:41;93969.84;;;4.78;36.00
73671;BME280;61968;48.178;11.566;2024-02-26T04:45:08;93971.09;;;4.76;35.85
73671;BME280;61968;48.178;11.566;2024-02-26T04:47:34;93976.91;;;4.78;35.72
73671;BME280;61968;48.178;11.566;2024-02-26T04:50:01;93982.31;;;4.71;35.96
73671;BME280;61968;48.178;11.566;2024-02-26T04:52:28;93973.63;;;4.70;35.94
73671;BME280;61968;48.178;11.566;2024-02-26T04:54:55;93985.38;;;4.68;35.78
73671;BME280;61968;48.178;11.566;2024-02-26T04:57:22;93975.94;;;4.67;35.91
73671;BME280;61968;48.178;11.566;2024-02-26T04:59:48;93968.53;;;4.64;35.78
73671;BME280;61968;48.178;11.566;2024-02-26T05:02:15;93974.81;;;4.63;35.80
73671;BME280;61968;48.178;11.566;2024-02-26T05:04:41;93964.81;;;4.60;35.98
73671;BME280;61968;48.178;11.566;2024-02-26T05:07:08;93978.91;;;4.59;35.80
73671;BME280;61968;48.178;11.566;2024-02-26T05:09:34;93980.28;;;4.61;35.75
73671;BME280;61968;48.178;11.566;2024-02-26T05:12:02;93978.59;;;4.55;35.81
73671;BME280;61968;48.178;11.566;2024-02-26T05:14:29;93979.38;;;4.56;35.83
73671;BME280;61968;48.178;11.566;2024-02-26T05:16:55;93964.50;;;4.56;35.70
73671;BME280;61968;48.178;11.566;2024-02-26T05:19:22;93968.38;;;4.54;35.92
73671;BME280;61968;48.178;11.566;2024-02-26T05:21:48;93974.72;;;4.58;35.70
73671;BME280;61968;48.178;11.566;2024-02-26T05:24:15;93985.19;;;4.58;36.18
73671;BME280;61968;48.178;11.566;2024-02-26T05:26:42;93999.84;;;4.59;35.90
73671;BME280;61968;48.178;11.566;2024-02-26T05:29:10;93987.81;;;4.58;35.85
73671;BME280;61968;48.178;11.566;2024-02-26T05:31:36;93991.22;;;4.58;35.67
73671;BME280;61968;48.178;11.566;2024-02-26T05:34:03;93998.28;;;4.58;35.80
73671;BME280;61968;48.178;11.566;2024-02-26T05:36:29;93995.66;;;4.58;35.99
73671;BME280;61968;48.178;11.566;2024-02-26T05:38:58;93990.44;;;4.58;35.82
73671;BME280;61968;48.178;11.566;2024-02-26T05:41:25;93990.69;;;4.56;35.67
73671;BME280;61968;48.178;11.566;2024-02-26T05:43:51;93991.00;;;4.60;35.90
73671;BME280;61968;48.178;11.566;2024-02-26T05:46:19;94000.47;;;4.78;55.25
73671;BME280;61968;48.178;11.566;2024-02-26T05:48:47;93995.25;;;6.72;54.39
73671;BME280;61968;48.178;11.566;2024-02-26T05:51:14;93991.53;;;7.64;37.19
73671;BME280;61968;48.178;11.566;2024-02-26T05:53:40;93985.78;;;7.03;34.95
73671;BME280;61968;48.178;11.566;2024-02-26T05:56:07;93986.44;;;6.56;34.85
73671;BME280;61968;48.178;11.566;2024-02-26T05:58:33;93992.84;;;6.21;34.33
73671;BME280;61968;48.178;11.566;2024-02-26T06:01:00;93992.53;;;5.96;34.68
73671;BME280;61968;48.178;11.566;2024-02-26T06:03:27;93995.69;;;5.76;34.77
73671;BME280;61968;48.178;11.566;2024-02-26T06:05:54;93999.44;;;5.63;35.15
73671;BME280;61968;48.178;11.566;2024-02-26T06:08:20;93994.31;;;5.51;35.01
73671;BME280;61968;48.178;11.566;2024-02-26T06:10:47;94007.09;;;5.48;35.34
73671;BME280;61968;48.178;11.566;2024-02-26T06:13:13;94007.50;;;5.40;34.84
73671;BME280;61968;48.178;11.566;2024-02-26T06:15:40;94015.84;;;5.36;35.15
73671;BME280;61968;48.178;11.566;2024-02-26T06:18:06;94012.81;;;5.28;35.49
73671;BME280;61968;48.178;11.566;2024-02-26T06:20:34;94020.16;;;5.26;35.44
73671;BME280;61968;48.178;11.566;2024-02-26T06:23:01;94020.75;;;5.16;35.36
73671;BME280;61968;48.178;11.566;2024-02-26T06:25:27;94027.19;;;5.08;35.73
73671;BME280;61968;48.178;11.566;2024-02-26T06:27:54;94028.25;;;5.07;36.13
73671;BME280;61968;48.178;11.566;2024-02-26T06:30:20;94039.81;;;5.11;36.12
73671;BME280;61968;48.178;11.566;2024-02-26T06:32:47;94048.16;;;5.08;35.79
73671;BME280;61968;48.178;11.566;2024-02-26T06:35:13;94052.59;;;5.08;36.17
73671;BME280;61968;48.178;11.566;2024-02-26T06:37:41;94049.66;;;5.04;36.05
73671;BME280;61968;48.178;11.566;2024-02-26T06:40:08;94053.63;;;5.07;36.51
73671;BME280;61968;48.178;11.566;2024-02-26T06:42:35;94057.06;;;5.07;36.37
73671;BME280;61968;48.178;11.566;2024-02-26T06:45:01;94058.31;;;5.05;36.65
73671;BME280;61968;48.178;11.566;2024-02-26T06:47:29;94060.38;;;5.03;36.77
73671;BME280;61968;48.178;11.566;2024-02-26T06:49:55;94066.66;;;5.02;36.29
73671;BME280;61968;48.178;11.566;2024-02-26T06:52:23;94073.94;;;5.00;36.29
73671;BME280;61968;48.178;11.566;2024-02-26T06:54:51;94080.28;;;5.04;36.72
73671;BME280;61968;48.178;11.566;2024-02-26T06:57:18;94085.47;;;4.99;36.10
73671;BME280;61968;48.178;11.566;2024-02-26T06:59:45;94076.00;;;4.98;36.45
73671;BME280;61968;48.178;11.566;2024-02-26T07:02:12;94080.69;;;4.96;37.47
73671;BME280;61968;48.178;11.566;2024-02-26T07:04:39;94079.50;;;5.03;36.88
73671;BME280;61968;48.178;11.566;2024-02-26T07:07:07;94077.75;;;5.09;36.87
73671;BME280;61968;48.178;11.566;2024-02-26T07:09:33;94081.97;;;5.10;36.96
73671;BME280;61968;48.178;11.566;2024-02-26T07:12:01;94084.09;;;5.13;36.93
73671;BME280;61968;48.178;11.566;2024-02-26T07:14:27;94082.53;;;5.12;36.53
73671;BME280;61968;48.178;11.566;2024-02-26T07:16:54;94082.78;;;5.10;36.56
73671;BME280;61968;48.178;11.566;2024-02-26T07:19:20;94084.94;;;5.13;36.64
73671;BME280;61968;48.178;11.566;2024-02-26T07:21:47;94086.66;;;5.08;35.99
73671;BME280;61968;48.178;11.566;2024-02-26T07:24:13;94080.63;;;5.07;36.55
73671;BME280;61968;48.178;11.566;2024-02-26T07:26:39;94074.72;;;5.00;36.25
73671;BME280;61968;48.178;11.566;2024-02-26T07:29:08;94089.44;;;5.01;36.26
73671;BME280;61968;48.178;11.566;2024-02-26T07:31:35;94087.59;;;5.02;36.32
73671;BME280;61968;48.178;11.566;2024-02-26T07:34:01;94094.41;;;5.03;36.67
73671;BME280;61968;48.178;11.566;2024-02-26T07:36:27;94093.38;;;5.04;36.28
73671;BME280;61968;48.178;11.566;2024-02-26T07:38:54;94096.56;;;5.06;36.62
73671;BME280;61968;48.178;11.566;2024-02-26T07:41:20;94092.78;;;5.13;36.59
73671;BME280;61968;48.178;11.566;2024-02-26T07:43:47;94092.53;;;5.15;36.55
73671;BME280;61968;48.178;11.566;2024-02-26T07:46:15;94095.47;;;5.19;36.45
73671;BME280;61968;48.178;11.566;2024-02-26T07:48:42;94082.41;;;5.35;36.55
73671;BME280;61968;48.178;11.566;2024-02-26T07:51:08;94086.13;;;5.40;36.63
73671;BME280;61968;48.178;11.566;2024-02-26T07:53:34;94101.44;;;5.31;36.40
73671;BME280;61968;48.178;11.566;2024-02-26T07:56:01;94109.56;;;5.29;36.27
73671;BME280;61968;48.178;11.566;2024-02-26T07:58:28;94112.09;;;5.24;36.59
73671;BME280;61968;48.178;11.566;2024-02-26T08:00:54;94109.31;;;5.31;36.37
73671;BME280;61968;48.178;11.566;2024-02-26T08:03:22;94115.91;;;5.33;36.24
73671;BME280;61968;48.178;11.566;2024-02-26T08:05:50;94104.00;;;5.43;36.01
73671;BME280;61968;48.178;11.566;2024-02-26T08:08:17;94104.00;;;5.43;35.71
73671;BME280;61968;48.178;11.566;2024-02-26T08:10:43;94103.47;;;5.41;36.34
73671;BME280;61968;48.178;11.566;2024-02-26T08:13:09;94107.56;;;5.36;36.62
73671;BME280;61968;48.178;11.566;2024-02-26T08:15:36;94105.25;;;5.40;36.33
73671;BME280;61968;48.178;11.566;2024-02-26T08:18:04;94103.22;;;5.42;36.33
73671;BME280;61968;48.178;11.566;2024-02-26T08:20:32;94100.84;;;5.41;36.34
73671;BME280;61968;48.178;11.566;2024-02-26T08:22:58;94104.78;;;5.43;36.66
73671;BME280;61968;48.178;11.566;2024-02-26T08:25:25;94100.22;;;5.50;36.05
73671;BME280;61968;48.178;11.566;2024-02-26T08:27:51;94096.69;;;5.61;35.25
73671;BME280;61968;48.178;11.566;2024-02-26T08:30:18;94095.19;;;5.66;35.26
73671;BME280;61968;48.178;11.566;2024-02-26T08:32:45;94095.50;;;5.69;34.81
73671;BME280;61968;48.178;11.566;2024-02-26T08:35:11;94090.00;;;5.71;35.06
73671;BME280;61968;48.178;11.566;2024-02-26T08:37:39;94102.09;;;5.72;34.97
73671;BME280;61968;48.178;11.566;2024-02-26T08:40:07;94114.91;;;5.68;34.78
73671;BME280;61968;48.178;11.566;2024-02-26T08:42:33;94128.34;;;5.72;35.00
73671;BME280;61968;48.178;11.566;2024-02-26T08:45:00;94135.94;;;5.73;34.73
73671;BME280;61968;48.178;11.566;2024-02-26T08:47:26;94133.97;;;5.80;34.86
73671;BME280;61968;48.178;11.566;2024-02-26T08:49:53;94128.97;;;5.79;35.02
73671;BME280;61968;48.178;11.566;2024-02-26T08:52:19;94130.88;;;5.83;34.63
73671;BME280;61968;48.178;11.566;2024-02-26T08:54:49;94130.53;;;5.97;34.71
73671;BME280;61968;48.178;11.566;2024-02-26T08:57:15;94133.16;;;5.97;34.41
73671;BME280;61968;48.178;11.566;2024-02-26T08:59:42;94127.03;;;5.91;35.07
73671;BME280;61968;48.178;11.566;2024-02-26T09:02:09;94131.03;;;5.94;35.18
73671;BME280;61968;48.178;11.566;2024-02-26T09:04:35;94133.47;;;6.00;35.15
73671;BME280;61968;48.178;11.566;2024-02-26T09:07:02;94123.75;;;6.01;35.23
73671;BME280;61968;48.178;11.566;2024-02-26T09:09:28;94122.56;;;6.09;34.71
73671;BME280;61968;48.178;11.566;2024-02-26T09:11:56;94119.88;;;6.03;35.14
73671;BME280;61968;48.178;11.566;2024-02-26T09:14:22;94120.50;;;6.11;34.89
73671;BME280;61968;48.178;11.566;2024-02-26T09:16:49;94122.81;;;6.07;35.13
73671;BME280;61968;48.178;11.566;2024-02-26T09:19:15;94124.78;;;6.17;34.65
73671;BME280;61968;48.178;11.566;2024-02-26T09:21:42;94125.28;;;6.14;34.97
73671;BME280;61968;48.178;11.566;2024-02-26T09:24:09;94129.75;;;6.13;35.21
73671;BME280;61968;48.178;11.566;2024-02-26T09:26:36;94133.38;;;6.12;35.15
73671;BME280;61968;48.178;11.566;2024-02-26T09:29:03;94121.38;;;6.16;35.32
73671;BME280;61968;48.178;11.566;2024-02-26T09:31:31;94127.72;;;6.20;35.35
73671;BME280;61968;48.178;11.566;2024-02-26T09:33:59;94113.75;;;6.32;34.95
73671;BME280;61968;48.178;11.566;2024-02-26T09:36:25;94120.66;;;6.38;34.76
73671;BME280;61968;48.178;11.566;2024-02-26T09:38:52;94120.09;;;6.36;33.98
73671;BME280;61968;48.178;11.566;2024-02-26T09:41:19;94119.28;;;6.35;34.33
73671;BME280;61968;48.178;11.566;2024-02-26T09:43:48;94124.28;;;6.37;33.98
73671;BME280;61968;48.178;11.566;2024-02-26T09:46:16;94119.66;;;6.44;34.12
73671;BME280;61968;48.178;11.566;2024-02-26T09:48:46;94120.69;;;6.43;34.32
73671;BME280;61968;48.178;11.566;2024-02-26T09:51:14;94112.88;;;6.48;34.44
73671;BME280;61968;48.178;11.566;2024-02-26T09:53:42;94116.75;;;6.62;34.30
73671;BME280;61968;48.178;11.566;2024-02-26T09:56:11;94117.84;;;6.66;34.18
73671;BME280;61968;48.178;11.566;2024-02-26T09:58:38;94110.25;;;6.70;34.00
73671;BME280;61968;48.178;11.566;2024-02-26T10:01:11;94115.28;;;6.71;34.19
73671;BME280;61968;48.178;11.566;2024-02-26T10:03:41;94107.09;;;6.68;33.63
73671;BME280;61968;48.178;11.566;2024-02-26T10:06:10;94101.78;;;6.63;33.56
73671;BME280;61968;48.178;11.566;2024-02-26T10:08:37;94110.38;;;6.80;33.91
73671;BME280;61968;48.178;11.566;2024-02-26T10:11:04;94108.00;;;6.79;34.22
73671;BME280;61968;48.178;11.566;2024-02-26T10:13:31;94107.50;;;6.82;34.44
73671;BME280;61968;48.178;11.566;2024-02-26T10:15:57;94113.91;;;6.91;33.56
73671;BME280;61968;48.178;11.566;2024-02-26T10:18:24;94106.03;;;6.91;33.68
73671;BME280;61968;48.178;11.566;2024-02-26T10:21:01;94109.50;;;6.96;33.97
73671;BME280;61968;48.178;11.566;2024-02-26T10:23:28;94110.06;;;6.98;33.99
73671;BME280;61968;48.178;11.566;2024-02-26T10:25:54;94114.53;;;6.98;34.43
73671;BME280;61968;48.178;11.566;2024-02-26T10:28:22;94115.84;;;7.01;34.20
73671;BME280;61968;48.178;11.566;2024-02-26T10:30:51;94103.03;;;7.04;34.53
73671;BME280;61968;48.178;11.566;2024-02-26T10:33:18;94099.91;;;7.07;34.82
73671;BME280;61968;48.178;11.566;2024-02-26T10:35:45;94106.72;;;7.08;34.98
73671;BME280;61968;48.178;11.566;2024-02-26T10:38:13;94094.78;;;7.23;35.03
73671;BME280;61968;48.178;11.566;2024-02-26T10:40:45;94091.09;;;7.24;35.36
73671;BME280;61968;48.178;11.566;2024-02-26T10:43:11;94091.69;;;7.31;35.37
73671;BME280;61968;48.178;11.566;2024-02-26T10:45:40;94093.88;;;7.39;34.86
73671;BME280;61968;48.178;11.566;2024-02-26T10:48:09;94096.84;;;7.48;34.09
73671;BME280;61968;48.178;11.566;2024-02-26T10:50:38;94088.16;;;7.47;34.52
73671;BME280;61968;48.178;11.566;2024-02-26T10:53:07;94085.03;;;7.50;34.37
73671;BME280;61968;48.178;11.566;2024-02-26T10:55:41;94093.78;;;7.56;34.70
73671;BME280;61968;48.178;11.566;2024-02-26T10:58:09;94091.44;;;7.59;34.01
73671;BME280;61968;48.178;11.566;2024-02-26T11:00:38;94090.91;;;7.57;33.97
73671;BME280;61968;48.178;11.566;2024-02-26T11:03:05;94093.13;;;7.71;33.22
73671;BME280;61968;48.178;11.566;2024-02-26T11:05:35;94101.81;;;7.71;33.73
73671;BME280;61968;48.178;11.566;2024-02-26T11:08:03;94113.97;;;7.82;33.65
73671;BME280;61968;48.178;11.566;2024-02-26T11:10:30;94117.47;;;7.93;33.24
73671;BME280;61968;48.178;11.566;2024-02-26T11:13:01;94114.91;;;8.03;32.88
73671;BME280;61968;48.178;11.566;2024-02-26T11:15:29;94120.16;;;8.03;33.18
73671;BME280;61968;48.178;11.566;2024-02-26T11:17:58;94121.53;;;8.11;32.44
73671;BME280;61968;48.178;11.566;2024-02-26T11:20:25;94124.47;;;8.15;32.49
73671;BME280;61968;48.178;11.566;2024-02-26T11:22:54;94125.56;;;8.24;32.42
73671;BME280;61968;48.178;11.566;2024-02-26T11:25:21;94122.16;;;8.23;32.22
73671;BME280;61968;48.178;11.566;2024-02-26T11:27:51;94128.75;;;8.26;32.56
73671;BME280;61968;48.178;11.566;2024-02-26T11:30:22;94121.16;;;8.40;32.44
73671;BME280;61968;48.178;11.566;2024-02-26T11:32:49;94130.72;;;8.51;32.83
73671;BME280;61968;48.178;11.566;2024-02-26T11:35:16;94125.75;;;8.60;31.86
73671;BME280;61968;48.178;11.566;2024-02-26T11:37:52;94127.88;;;8.63;32.30
73671;BME280;61968;48.178;11.566;2024-02-26T11:40:19;94126.88;;;8.69;31.78
73671;BME280;61968;48.178;11.566;2024-02-26T11:42:45;94126.88;;;8.69;32.32
73671;BME280;61968;48.178;11.566;2024-02-26T11:45:50;94122.41;;;8.69;31.91
73671;BME280;61968;48.178;11.566;2024-02-26T11:48:22;94130.38;;;8.79;32.02
73671;BME280;61968;48.178;11.566;2024-02-26T11:50:50;94131.44;;;8.89;32.40
73671;BME280;61968;48.178;11.566;2024-02-26T11:53:22;94120.63;;;8.90;31.40
73671;BME280;61968;48.178;11.566;2024-02-26T11:58:53;94110.94;;;9.11;31.49
73671;BME280;61968;48.178;11.566;2024-02-26T12:01:43;94109.63;;;9.14;30.99
73671;BME280;61968;48.178;11.566;2024-02-26T12:04:16;94123.91;;;9.23;31.21
73671;BME280;61968;48.178;11.566;2024-02-26T12:06:50;94112.31;;;9.34;31.44
73671;BME280;61968;48.178;11.566;2024-02-26T12:09:35;94113.09;;;9.40;31.39
73671;BME280;61968;48.178;11.566;2024-02-26T12:12:04;94112.31;;;9.55;30.82
73671;BME280;61968;48.178;11.566;2024-02-26T12:14:33;94112.34;;;9.96;43.89
73671;BME280;61968;48.178;11.566;2024-02-26T12:17:01;94101.91;;;10.66;40.81
73671;BME280;61968;48.178;11.566;2024-02-26T12:19:32;94103.53;;;11.16;38.47
73671;BME280;61968;48.178;11.566;2024-02-26T12:21:58;94099.63;;;11.48;34.26
73671;BME280;61968;48.178;11.566;2024-02-26T12:24:25;94090.19;;;11.37;30.16
73671;BME280;61968;48.178;11.566;2024-02-26T12:26:51;94094.84;;;11.11;29.50
73671;BME280;61968;48.178;11.566;2024-02-26T12:29:18;94097.03;;;10.98;30.49
73671;BME280;61968;48.178;11.566;2024-02-26T12:31:45;94106.81;;;10.98;30.04
73671;BME280;61968;48.178;11.566;2024-02-26T12:34:13;94103.19;;;10.83;29.73
73671;BME280;61968;48.178;11.566;2024-02-26T12:36:41;94114.53;;;10.79;30.51
73671;BME280;61968;48.178;11.566;2024-02-26T12:39:07;94124.34;;;10.73;28.79
73671;BME280;61968;48.178;11.566;2024-02-26T12:41:34;94124.06;;;10.75;29.02
73671;BME280;61968;48.178;11.566;2024-02-26T12:44:01;94144.44;;;10.79;29.20
73671;BME280;61968;48.178;11.566;2024-02-26T12:46:27;94141.53;;;10.71;28.86
73671;BME280;61968;48.178;11.566;2024-02-26T12:48:56;94138.88;;;10.71;29.65
73671;BME280;61968;48.178;11.566;2024-02-26T12:51:25;94139.91;;;10.75;29.59
73671;BME280;61968;48.178;11.566;2024-02-26T12:53:52;94137.31;;;10.80;29.30
73671;BME280;61968;48.178;11.566;2024-02-26T12:56:19;94129.63;;;10.83;29.58
73671;BME280;61968;48.178;11.566;2024-02-26T12:58:46;94133.03;;;10.89;29.31
73671;BME280;61968;48.178;11.566;2024-02-26T13:01:14;94133.28;;;10.88;28.76
73671;BME280;61968;48.178;11.566;2024-02-26T13:03:42;94144.63;;;10.98;28.91